AirNav   Bose Proflight or Bose A20?
 
 787 users online  

08NJ St Barnabas Medical Center Heliport
Livingston, New Jersey, USA

GOING TO LIVINGSTON?


FAA INFORMATION EFFECTIVE 23 MAY 2019

Location

FAA Identifier: 08NJ
Lat/Long: 40-45-45.3620N / 074-18-14.5340W
40-45.756033N / 074-18.242233W
40.7626006 / -74.3040372
(estimated)
Elevation: 429 ft. / 130.8 m (surveyed)
Variation: 12W (1985)
Time zone: UTC -4 (UTC -5 during Standard Time)
Zip code: 07039

Heliport Operations

Heliport use: Private use, MEDICAL USE.
Activation date: 05/1989
Control tower: no
ARTCC: NEW YORK CENTER
FSS: MILLVILLE FLIGHT SERVICE STATION
Attendance: CONTINUOUS
Wind indicator: lighted
Segmented circle: no

Heliport Communications

WX AWOS-3 at MMU (5 nm NW): PHONE 973-290-0135
WX ASOS at CDW (7 nm N): 135.5 (973-575-4417)
WX ASOS at EWR (7 nm SE): PHONE 973-621-2892
WX AWOS-3 at LDJ (9 nm S): 124.025 (908-862-7383)
WX ASOS at TEB (12 nm NE): 132.025 (201-393-0855)
WX AWOS-3PT at JRB (14 nm E): 128.175 (212-425-1534)
WX ASOS at SMQ (19 nm SW): 120.6 (908-722-2139)
WX ASOS at LGA (20 nm E): PHONE 718-672-6317

Nearby radio navigation aids

VOR radial/distance  VOR name  Freq  Var
TEBr256/12.1TETERBORO VOR/DME108.4011W
LGAr278/19.8LA GUARDIA VOR/DME113.1012W
CRIr307/20.7CANARSIE VOR/DME112.3011W
SAXr161/21.2SPARTA VORTAC115.7011W
SBJr072/22.6SOLBERG VOR/DME112.9010W
BWZr106/23.6BROADWAY VOR/DME114.2011W
JFKr300/25.4KENNEDY VOR/DME115.9012W
COLr357/27.8COLTS NECK VOR/DME115.4011W
STWr130/29.2STILLWATER VOR/DME109.6011W
RBVr025/34.7ROBBINSVILLE VORTAC113.8010W

 
NDB name  Hdg/Dist  Freq  Var  ID
CHATHAM090/5.925413WCAT -.-. .- -
TORBY264/8.221412WTE - .

Heliport Services

Runway Information

Helipad H1

Dimensions: 90 x 90 ft. / 27 x 27 m
Surface: asphalt
Latitude: 40-45.756033N
Longitude: 074-18.242233W
Elevation: 429.0 ft.
Traffic pattern: leftleft

Heliport Ownership and Management from official FAA records

Ownership: Privately-owned
Owner: ST BARNABAS MEDICAL CENTER
94 OLD SHORT HILLS RD
LIVINGSTON, NJ 07039
Phone 973-322-5000
Manager: MICHAEL MITCHELL, DIRECTOR
94 OLD SHORT HILLS RD
LIVINGSTON, NJ 07039
Phone 973-322-2617

Additional Remarks

FOR CD CTC NEW YORK APCH AT 800-645-3206.

Instrument Procedures

There are no published instrument procedures at 08NJ.

Some nearby airports with instrument procedures:

KMMU - Morristown Municipal Airport (5 nm NW)
KCDW - Essex County Airport (7 nm N)
KEWR - Newark Liberty International Airport (7 nm SE)
KLDJ - Linden Airport (9 nm S)
N07 - Lincoln Park Airport (11 nm N)
KTEB - Teterboro Airport (12 nm NE)
KJRA - West 30th St Heliport (14 nm E)
KJRB - Downtown Manhattan/Wall Street Heliport (14 nm E)
6N5 - East 34th Street Heliport (15 nm E)
KSMQ - Somerset Airport (19 nm SW)
 
Loc | Ops | Rwys | IFR | FBO | Links
Com | Nav | Svcs | Stats | Notes
Area around 08NJ (St Barnabas Medical Center Heliport)
 
Road maps at: MapQuest Bing Google
 
Aerial photo
No photo
 
Sectional chart

 
Airport distance calculator
Flying to St Barnabas Medical Center Heliport? Find the distance to fly.

From to 08NJ

Sunrise and sunset
Times for 19-Jun-2019
 Local
(UTC-4)
 Zulu
(UTC)
Morning civil twilight04:5308:53
Sunrise05:2709:27
Sunset20:3000:30
Evening civil twilight21:0401:04

Current date and time
Zulu (UTC)  19-Jun-2019 12:05:57
Local (UTC-4)  19-Jun-2019 08:05:57
 
METAR
KMMU 
5nm W 
191145Z 13004KT 2 1/4SM RA BKN005 OVC009 20/20 A2988
KCDW 
7nm N 
191153Z 09004KT 3SM -RA BR OVC004 21/19 A2988 RMK AO2 RAB42 SLP122 P0001 60001 70067 T02060194 10206 20200 50001
KEWR 
8nm SE 
191151Z 10006KT 4SM BR OVC007 21/19 A2987 RMK AO2 SLP114 60000 70109 T02060189 10206 20200 50002
KLDJ 
9nm S 
191155Z AUTO 00000KT 2SM BR OVC005 20/19 A2988 RMK AO2 70116 T01990191 10200 20196
KTEB 
13nm NE 
191151Z VRB04KT 7SM BR OVC009 21/18 A2986 RMK AO2 CIG 008V014 SLP112 70065 T02110183 10211 20200 51003 $
KJRB 
14nm E 
191156Z AUTO 04005KT 10SM OVC009 20/18 A2988 RMK AO2 SLP118 60000 70106 T02000183 10200 20189 50003
KNYC 
15nm E 
191151Z AUTO 05005KT 6SM BR OVC008 19/18 A2990 RMK AO2 SLP117 70068 T01940183 10194 20189 51005 $
KSMQ 
19nm SW 
ASOS 120.60 908-722-2139
191153Z AUTO 00000KT 4SM -RA BR OVC009 21/20 A2985 RMK AO2 RAB1057 SLP107 P0001 60001 70187 T02060200 10206 20194 50000
KLGA 
19nm E 
191151Z VRB05KT 10SM BKN009 OVC020 19/18 A2987 RMK AO2 SLP114 70053 T01940178 10200 20183 50001
TAF
KEWR 
8nm SE 
191144Z 1912/2018 VRB04KT 2SM BR VCSH OVC004 FM191400 15005KT 4SM BR OVC006 FM191600 15007KT P6SM VCSH OVC010 FM191800 14009KT 5SM -SHRA BKN015 FM200000 12006KT 6SM BR VCSH OVC015 FM200200 VRB03KT 3SM BR OVC007 FM201600 12006KT 5SM BR SCT007 OVC015
KTEB 
13nm NE 
191144Z 1912/2018 VRB02KT 2SM BR VCSH BKN006 OVC020 FM191400 14004KT 3SM BR OVC006 FM191600 15006KT P6SM VCSH OVC010 FM191800 14006KT 5SM -SHRA BKN015 FM200000 14006KT 6SM BR VCSH OVC015 FM200200 VRB03KT 6SM BR OVC009 FM201600 13005KT 3SM BR SCT009 OVC020
KLGA 
19nm E 
191144Z 1912/2018 VRB04KT 3SM BR VCSH OVC004 FM191400 13006KT 3SM BR OVC006 FM191600 14008KT P6SM VCSH OVC010 FM191800 14009KT 5SM -SHRA BKN015 FM200000 15006KT 6SM BR VCSH OVC015 FM200200 VRB03KT 2SM BR OVC008 FM201600 11008KT 4SM BR SCT008 OVC015
NOTAMs
Click for the latest NOTAMs
NOTAMs are issued by the DoD/FAA and will open in a separate window not controlled by AirNav.

 

 
 

Would you like to see your business listed on this page?

 If your business provides an interesting product or service to pilots, flight crews, aircraft, or users of the St Barnabas Medical Center Heliport, you should consider listing it here.  To start the listing process, click on the button below
 
Add a business
 

Other Pages about St Barnabas Medical Center Heliport

Update a link
 
Copyright © AirNav, LLC. All rights reserved. Privacy Policy  Contact